createdAt,value
2019-05-29T00:02:27.950Z,12.0
2019-05-29T00:07:27.440Z,12.0
2019-05-29T00:12:27.683Z,11.9
2019-05-29T00:17:27.736Z,11.9
2019-05-29T00:22:28.632Z,11.9
2019-05-29T00:27:27.575Z,11.9
2019-05-29T00:32:28.363Z,11.9
2019-05-29T00:37:27.523Z,11.8
2019-05-29T00:42:28.527Z,11.8
2019-05-29T00:47:28.795Z,11.8
2019-05-29T00:52:27.428Z,11.9
2019-05-29T00:57:28.114Z,12.0
2019-05-29T01:02:27.924Z,11.9
2019-05-29T01:07:27.344Z,11.9
2019-05-29T01:12:28.340Z,11.9
2019-05-29T01:17:28.689Z,12.0
2019-05-29T01:22:27.465Z,12.0
2019-05-29T01:27:27.956Z,12.2
2019-05-29T01:32:27.691Z,12.2
2019-05-29T01:37:28.676Z,12.2
2019-05-29T01:42:29.567Z,12.3
2019-05-29T01:47:27.994Z,12.3
2019-05-29T01:52:28.242Z,12.3
2019-05-29T01:57:28.004Z,12.3
2019-05-29T02:02:28.214Z,12.4
2019-05-29T02:07:28.575Z,12.4
2019-05-29T02:12:27.817Z,12.4
2019-05-29T02:17:28.847Z,12.4
2019-05-29T02:22:27.824Z,12.4
2019-05-29T02:27:28.075Z,12.4
2019-05-29T02:32:27.993Z,12.4
2019-05-29T02:37:29.435Z,12.4
2019-05-29T02:42:29.121Z,12.3
2019-05-29T02:47:30.234Z,12.4
2019-05-29T02:52:28.664Z,12.3
2019-05-29T02:57:29.012Z,12.2
2019-05-29T03:02:30.008Z,12.1
2019-05-29T03:07:30.606Z,12.1
2019-05-29T03:12:29.272Z,12.1
2019-05-29T03:17:29.676Z,12.2
2019-05-29T03:22:28.675Z,12.2
2019-05-29T03:27:27.863Z,12.2
2019-05-29T03:32:30.430Z,12.2
2019-05-29T03:37:28.243Z,12.2
2019-05-29T03:42:28.324Z,12.2
2019-05-29T03:47:28.732Z,12.1
2019-05-29T03:52:29.755Z,12.1
2019-05-29T03:57:29.726Z,12.1
2019-05-29T04:02:29.007Z,12.2
2019-05-29T04:07:29.230Z,12.2
2019-05-29T04:12:29.330Z,12.3
2019-05-29T04:17:29.687Z,12.3
2019-05-29T04:22:28.641Z,12.3
2019-05-29T04:27:27.949Z,12.3
2019-05-29T04:32:28.137Z,12.3
2019-05-29T04:37:28.500Z,12.5
2019-05-29T04:42:31.846Z,12.8
2019-05-29T04:47:28.931Z,12.8
2019-05-29T04:52:29.071Z,13.0
2019-05-29T04:57:29.214Z,13.1
2019-05-29T05:02:28.864Z,13.1
2019-05-29T05:07:29.644Z,13.1
2019-05-29T05:12:29.574Z,13.1
2019-05-29T05:17:29.659Z,13.1
2019-05-29T05:22:28.128Z,13.1
2019-05-29T05:27:27.954Z,13.1
2019-05-29T05:32:27.964Z,13.1
2019-05-29T05:37:28.192Z,13.3
2019-05-29T05:42:28.297Z,13.3
2019-05-29T05:47:43.365Z,13.3
2019-05-29T05:52:27.678Z,13.3
2019-05-29T05:57:27.359Z,13.1
2019-05-29T06:02:28.842Z,13.1
2019-05-29T06:07:27.995Z,13.2
2019-05-29T06:12:27.695Z,13.8
2019-05-29T06:17:28.011Z,13.7
2019-05-29T06:22:27.971Z,14.0
2019-05-29T06:27:29.004Z,14.2
2019-05-29T06:32:27.634Z,14.3
2019-05-29T06:37:28.105Z,14.4
2019-05-29T06:42:28.075Z,14.4
2019-05-29T06:47:28.673Z,14.5
2019-05-29T06:52:28.517Z,14.7
2019-05-29T06:57:29.109Z,14.7
2019-05-29T07:02:31.114Z,14.9
2019-05-29T07:07:27.915Z,15.2
2019-05-29T07:12:27.689Z,15.4
2019-05-29T07:17:28.506Z,15.5
2019-05-29T07:22:28.591Z,15.3
2019-05-29T07:27:28.370Z,15.2
2019-05-29T07:32:28.853Z,15.5
2019-05-29T07:37:28.086Z,16.0
2019-05-29T07:42:27.986Z,16.2
2019-05-29T07:47:29.472Z,16.2
2019-05-29T07:52:28.200Z,16.5
2019-05-29T07:57:27.968Z,16.8
2019-05-29T08:02:28.629Z,16.7
2019-05-29T08:07:28.430Z,16.6
2019-05-29T08:12:27.876Z,16.4
2019-05-29T08:17:28.164Z,16.3
2019-05-29T08:22:34.093Z,16.3
2019-05-29T08:27:28.650Z,16.2
2019-05-29T08:32:27.978Z,16.1
2019-05-29T08:37:28.126Z,15.9
2019-05-29T08:42:28.534Z,16.0
2019-05-29T08:47:28.240Z,16.0
2019-05-29T08:52:28.034Z,16.2
2019-05-29T08:57:27.899Z,16.2
2019-05-29T09:02:28.188Z,16.1
2019-05-29T09:07:28.497Z,16.0
2019-05-29T09:12:30.050Z,16.0
2019-05-29T09:17:27.949Z,16.1
2019-05-29T09:22:27.958Z,16.6
2019-05-29T09:27:29.222Z,17.0
2019-05-29T09:32:48.261Z,17.0
2019-05-29T09:37:29.339Z,17.5
2019-05-29T09:42:28.675Z,17.9
2019-05-29T09:47:27.909Z,18.6
2019-05-29T09:52:30.557Z,18.9
2019-05-29T09:57:29.342Z,19.2
2019-05-29T10:02:28.526Z,19.9
2019-05-29T10:07:28.465Z,20.4
2019-05-29T10:12:30.270Z,20.4
2019-05-29T10:17:29.082Z,20.7
2019-05-29T10:22:28.351Z,20.9
2019-05-29T10:27:28.204Z,20.8
2019-05-29T10:32:28.101Z,20.9
2019-05-29T10:37:28.389Z,20.5
2019-05-29T10:42:28.565Z,20.0
2019-05-29T10:47:27.897Z,19.9
2019-05-29T10:52:27.851Z,19.9
2019-05-29T10:57:28.299Z,20.0
2019-05-29T11:02:27.882Z,19.5
2019-05-29T11:07:28.181Z,19.5
2019-05-29T11:12:29.068Z,19.2
2019-05-29T11:17:28.542Z,18.9
2019-05-29T11:22:28.389Z,18.9
2019-05-29T11:27:29.438Z,19.0
2019-05-29T11:32:28.371Z,19.3
2019-05-29T11:37:29.121Z,19.8
2019-05-29T11:42:28.478Z,20.5
2019-05-29T11:47:29.322Z,20.9
2019-05-29T11:52:39.770Z,21.6
2019-05-29T11:57:29.844Z,21.9
2019-05-29T12:02:28.407Z,22.1
2019-05-29T12:07:29.879Z,22.1
2019-05-29T12:12:29.092Z,22.1
2019-05-29T12:17:29.358Z,22.1
2019-05-29T12:22:28.621Z,22.7
2019-05-29T12:27:29.230Z,22.7
2019-05-29T12:32:28.015Z,22.8
2019-05-29T12:37:28.034Z,22.9
2019-05-29T12:42:28.654Z,22.2
2019-05-29T12:47:27.875Z,21.8
2019-05-29T12:52:28.045Z,21.8
2019-05-29T12:57:28.344Z,22.2
2019-05-29T13:02:28.672Z,22.5
2019-05-29T13:07:28.973Z,23.2
2019-05-29T13:12:27.717Z,23.3
2019-05-29T13:17:28.353Z,23.5
2019-05-29T13:22:27.959Z,23.5
2019-05-29T13:27:28.430Z,23.3
2019-05-29T13:32:28.177Z,23.7
2019-05-29T13:37:28.599Z,24.0
2019-05-29T13:42:28.493Z,24.1
2019-05-29T13:47:29.130Z,24.4
2019-05-29T13:52:28.584Z,25.3
2019-05-29T13:57:28.502Z,25.5
2019-05-29T14:02:27.968Z,25.2
2019-05-29T14:07:29.149Z,24.8
2019-05-29T14:12:29.998Z,23.8
2019-05-29T14:17:30.067Z,22.4
2019-05-29T14:22:27.883Z,21.5
2019-05-29T14:27:28.249Z,20.8
2019-05-29T14:32:28.975Z,20.5
2019-05-29T14:37:27.871Z,19.9
2019-05-29T14:42:27.587Z,19.9
2019-05-29T14:47:28.443Z,21.2
2019-05-29T14:52:27.785Z,21.2
2019-05-29T14:57:28.419Z,24.3
2019-05-29T15:02:28.925Z,28.9
2019-05-29T15:07:28.931Z,31.6
2019-05-29T15:12:28.436Z,32.1
2019-05-29T15:17:28.572Z,30.4
2019-05-29T15:22:28.692Z,27.3
2019-05-29T15:27:28.229Z,25.2
2019-05-29T15:32:29.584Z,23.8
2019-05-29T15:37:28.361Z,23.0
2019-05-29T15:42:28.662Z,22.6
2019-05-29T15:47:29.794Z,22.2
2019-05-29T15:52:28.094Z,21.6
2019-05-29T15:57:27.984Z,22.0
2019-05-29T16:02:28.126Z,23.0
2019-05-29T16:07:28.680Z,22.9
2019-05-29T16:12:30.887Z,24.1
2019-05-29T16:17:28.502Z,24.7
2019-05-29T16:22:28.117Z,24.7
2019-05-29T16:27:30.922Z,24.6
2019-05-29T16:32:28.636Z,23.9
2019-05-29T16:37:27.960Z,23.6
2019-05-29T16:42:27.824Z,23.2
2019-05-29T16:47:29.337Z,23.5
2019-05-29T16:52:27.699Z,23.4
2019-05-29T16:57:28.686Z,24.2
2019-05-29T17:02:28.163Z,24.8
2019-05-29T17:07:29.250Z,27.1
2019-05-29T17:12:28.186Z,27.2
2019-05-29T17:17:30.396Z,38.2
2019-05-29T17:22:28.710Z,38.2
2019-05-29T17:27:28.150Z,41.6
2019-05-29T17:32:27.896Z,42.2
2019-05-29T17:37:27.831Z,42.2
2019-05-29T17:42:28.565Z,39.3
2019-05-29T17:47:28.561Z,33.0
2019-05-29T17:52:28.954Z,30.8
2019-05-29T18:02:30.196Z,27.7
2019-05-29T18:07:29.433Z,26.1
2019-05-29T18:12:27.968Z,24.7
2019-05-29T18:17:28.378Z,23.5
2019-05-29T18:22:29.601Z,22.5
2019-05-29T18:27:28.801Z,21.8
2019-05-29T18:32:28.998Z,21.1
2019-05-29T18:37:28.751Z,20.1
2019-05-29T18:42:29.168Z,20.1
2019-05-29T18:47:29.252Z,19.5
2019-05-29T18:52:28.173Z,19.1
2019-05-29T18:57:29.269Z,18.2
2019-05-29T19:02:28.014Z,18.1
2019-05-29T19:07:29.665Z,17.3
2019-05-29T19:12:28.318Z,17.3
2019-05-29T19:17:28.379Z,16.9
2019-05-29T19:22:28.470Z,16.5
2019-05-29T19:27:37.297Z,16.2
2019-05-29T19:32:29.392Z,15.5
2019-05-29T19:37:28.000Z,15.4
2019-05-29T19:42:28.190Z,15.2
2019-05-29T19:47:28.564Z,14.9
2019-05-29T19:52:27.532Z,14.3
2019-05-29T19:57:28.194Z,14.3
2019-05-29T20:02:28.456Z,14.2
2019-05-29T20:07:28.945Z,14.1
2019-05-29T20:12:28.096Z,14.0
2019-05-29T20:17:28.412Z,13.9
2019-05-29T20:22:28.704Z,13.7
2019-05-29T20:27:27.936Z,13.5
2019-05-29T20:32:27.564Z,13.2
2019-05-29T20:37:28.181Z,13.1
2019-05-29T20:42:27.293Z,13.1
2019-05-29T20:47:28.658Z,13.0
2019-05-29T20:52:28.512Z,12.7
2019-05-29T20:57:27.463Z,12.6
2019-05-29T21:02:28.447Z,12.4
2019-05-29T21:07:28.912Z,12.4
2019-05-29T21:12:28.221Z,12.3
2019-05-29T21:17:28.925Z,12.2
2019-05-29T21:22:28.236Z,12.1
2019-05-29T21:27:28.563Z,12.0
2019-05-29T21:32:27.614Z,11.9
2019-05-29T21:37:28.476Z,11.9
2019-05-29T21:42:27.912Z,11.8
2019-05-29T21:47:28.409Z,11.7
2019-05-29T21:52:28.176Z,11.7
2019-05-29T21:57:27.655Z,11.6
2019-05-29T22:02:28.928Z,11.5
2019-05-29T22:07:28.799Z,11.4
2019-05-29T22:12:28.073Z,11.4
2019-05-29T22:22:41.212Z,11.2
2019-05-29T22:27:40.640Z,11.2
2019-05-29T22:32:40.774Z,11.0
2019-05-29T22:37:39.885Z,10.8
2019-05-29T22:42:40.445Z,10.8
2019-05-29T22:47:41.792Z,10.7
2019-05-29T22:52:39.760Z,10.8
2019-05-29T22:57:40.339Z,10.7
2019-05-29T23:02:39.863Z,10.7
2019-05-29T23:07:40.682Z,10.6
2019-05-29T23:12:28.717Z,10.6
2019-05-29T23:17:28.929Z,10.5
2019-05-29T23:22:27.449Z,10.2
2019-05-29T23:27:27.576Z,10.1
2019-05-29T23:32:28.378Z,10.2
2019-05-29T23:37:27.690Z,10.2
2019-05-29T23:42:28.854Z,10.1
2019-05-29T23:47:27.658Z,10.1
2019-05-29T23:52:29.583Z,10.1
2019-05-29T23:57:28.335Z,10.0
